createdAt,value
2019-02-06T00:00:50.903Z,34.90
2019-02-06T00:03:22.491Z,36.77
2019-02-06T00:05:53.733Z,36.27
2019-02-06T00:08:24.011Z,35.43
2019-02-06T00:10:54.083Z,35.80
2019-02-06T00:13:25.472Z,35.83
2019-02-06T00:15:57.797Z,34.57
2019-02-06T00:18:28.720Z,36.83
2019-02-06T00:20:58.781Z,33.53
2019-02-06T00:23:28.932Z,34.33
2019-02-06T00:25:58.875Z,30.80
2019-02-06T00:28:28.895Z,23.30
2019-02-06T00:31:00.343Z,33.17
2019-02-06T00:33:30.474Z,32.23
2019-02-06T00:36:01.023Z,35.67
2019-02-06T00:38:31.203Z,31.00
2019-02-06T00:41:03.250Z,32.57
2019-02-06T00:43:33.382Z,32.97
2019-02-06T00:46:03.955Z,34.07
2019-02-06T00:48:34.130Z,33.63
2019-02-06T00:51:04.255Z,31.87
2019-02-06T00:53:34.322Z,34.97
2019-02-06T00:56:06.032Z,33.00
2019-02-06T00:58:36.123Z,32.50
2019-02-06T01:01:06.994Z,32.37
2019-02-06T01:03:37.455Z,33.18
2019-02-06T01:06:07.782Z,32.50
2019-02-06T01:08:38.642Z,31.97
2019-02-06T01:11:08.834Z,34.50
2019-02-06T01:13:38.829Z,25.03
2019-02-06T01:16:09.165Z,33.10
2019-02-06T01:18:39.374Z,32.00
2019-02-06T01:21:10.980Z,32.50
2019-02-06T01:23:41.195Z,29.47
2019-02-06T01:26:11.424Z,33.20
2019-02-06T01:28:41.502Z,30.80
2019-02-06T01:31:16.646Z,32.13
2019-02-06T01:33:46.741Z,31.67
2019-02-06T01:36:16.779Z,31.07
2019-02-06T01:38:47.383Z,33.47
2019-02-06T01:41:17.328Z,30.67
2019-02-06T01:43:47.296Z,33.90
2019-02-06T01:46:17.515Z,31.47
2019-02-06T01:48:47.550Z,32.27
2019-02-06T01:51:17.591Z,32.37
2019-02-06T01:53:48.890Z,32.30
2019-02-06T01:56:18.900Z,30.03
2019-02-06T01:58:48.791Z,30.37
2019-02-06T02:01:18.864Z,33.13
2019-02-06T02:03:48.936Z,26.67
2019-02-06T02:06:19.135Z,31.40
2019-02-06T02:08:57.167Z,30.63
2019-02-06T02:11:27.284Z,31.20
2019-02-06T02:14:10.720Z,27.87
2019-02-06T02:16:40.775Z,25.63
2019-02-06T02:19:11.945Z,27.97
2019-02-06T02:21:42.053Z,28.47
2019-02-06T02:24:12.010Z,32.37
2019-02-06T02:26:41.955Z,29.73
2019-02-06T02:29:11.950Z,29.10
2019-02-06T02:31:42.504Z,32.93
2019-02-06T02:34:12.477Z,27.50
2019-02-06T02:36:42.541Z,33.10
2019-02-06T02:39:12.634Z,30.87
2019-02-06T02:41:42.695Z,28.67
2019-02-06T02:44:12.812Z,27.50
2019-02-06T02:46:42.896Z,29.90
2019-02-06T02:49:12.889Z,24.83
2019-02-06T02:51:44.593Z,31.93
2019-02-06T02:54:14.627Z,30.43
2019-02-06T02:56:44.695Z,30.60
2019-02-06T02:59:15.028Z,29.03
2019-02-06T03:01:55.383Z,30.00
2019-02-06T03:04:29.736Z,30.77
2019-02-06T03:07:00.014Z,28.97
2019-02-06T03:09:30.050Z,28.57
2019-02-06T03:12:00.215Z,27.43
2019-02-06T03:14:31.213Z,28.33
2019-02-06T03:17:13.725Z,26.93
2019-02-06T03:19:43.793Z,25.33
2019-02-06T03:22:13.856Z,28.10
2019-02-06T03:24:43.756Z,26.40
2019-02-06T03:27:13.756Z,30.17
2019-02-06T03:29:43.782Z,28.83
2019-02-06T03:32:14.872Z,28.83
2019-02-06T03:34:44.840Z,29.27
2019-02-06T03:37:15.235Z,28.50
2019-02-06T03:39:45.161Z,23.73
2019-02-06T03:42:15.179Z,27.87
2019-02-06T03:44:45.316Z,26.00
2019-02-06T03:47:15.601Z,27.10
2019-02-06T03:49:45.603Z,28.10
2019-02-06T03:52:15.927Z,27.60
2019-02-06T03:54:47.116Z,27.30
2019-02-06T03:57:17.633Z,26.37
2019-02-06T03:59:47.551Z,26.70
2019-02-06T04:02:17.616Z,25.53
2019-02-06T04:04:47.810Z,25.87
2019-02-06T04:07:18.027Z,27.00
2019-02-06T04:09:48.293Z,27.57
2019-02-06T04:12:19.849Z,26.40
2019-02-06T04:14:49.857Z,25.23
2019-02-06T04:17:19.872Z,26.23
2019-02-06T04:19:50.600Z,27.70
2019-02-06T04:22:20.658Z,25.77
2019-02-06T04:24:51.676Z,25.43
2019-02-06T04:27:21.989Z,24.20
2019-02-06T04:29:52.055Z,25.27
2019-02-06T04:32:23.459Z,26.13
2019-02-06T04:34:53.756Z,27.10
2019-02-06T04:37:23.872Z,26.00
2019-02-06T04:39:53.988Z,23.13
2019-02-06T04:42:24.127Z,24.90
2019-02-06T04:44:54.177Z,25.10
2019-02-06T04:47:25.636Z,25.30
2019-02-06T04:49:56.814Z,25.50
2019-02-06T04:52:26.776Z,25.27
2019-02-06T04:54:56.688Z,21.57
2019-02-06T04:57:27.922Z,25.73
2019-02-06T04:59:58.769Z,25.23
2019-02-06T05:02:28.861Z,26.00
2019-02-06T05:04:58.868Z,26.17
2019-02-06T05:07:28.806Z,22.30
2019-02-06T05:09:58.805Z,23.67
2019-02-06T05:12:28.802Z,23.80
2019-02-06T05:14:58.730Z,24.13
2019-02-06T05:17:28.779Z,24.03
2019-02-06T05:19:59.487Z,25.23
2019-02-06T05:22:31.198Z,22.70
2019-02-06T05:25:01.179Z,25.43
2019-02-06T05:27:32.470Z,24.12
2019-02-06T05:30:02.901Z,22.73
2019-02-06T05:32:33.111Z,23.33
2019-02-06T05:35:03.291Z,23.20
2019-02-06T05:37:33.266Z,23.33
2019-02-06T05:40:03.294Z,24.93
2019-02-06T05:42:35.030Z,24.87
2019-02-06T05:45:06.751Z,24.97
2019-02-06T05:47:36.806Z,23.43
2019-02-06T05:50:08.031Z,24.90
2019-02-06T05:52:37.992Z,21.48
2019-02-06T05:55:08.156Z,24.40
2019-02-06T05:57:38.203Z,22.67
2019-02-06T06:00:12.690Z,24.13
2019-02-06T06:02:42.816Z,25.07
2019-02-06T06:05:13.045Z,26.33
2019-02-06T06:07:45.462Z,23.20
2019-02-06T06:10:16.122Z,25.40
2019-02-06T06:12:46.563Z,23.37
2019-02-06T06:15:17.717Z,24.13
2019-02-06T06:17:47.910Z,24.73
2019-02-06T06:20:18.236Z,24.13
2019-02-06T06:22:48.276Z,23.80
2019-02-06T06:25:21.450Z,23.40
2019-02-06T06:27:51.775Z,23.93
2019-02-06T06:30:21.849Z,23.57
2019-02-06T06:32:52.013Z,20.77
2019-02-06T06:35:22.126Z,23.93
2019-02-06T06:37:59.703Z,21.83
2019-02-06T06:40:25.905Z,22.77
2019-02-06T06:42:56.048Z,23.60
2019-02-06T06:45:26.445Z,19.40
2019-02-06T06:47:56.634Z,25.37
2019-02-06T06:50:26.876Z,23.90
2019-02-06T06:52:57.043Z,23.07
2019-02-06T06:55:27.781Z,21.40
2019-02-06T06:57:57.782Z,23.83
2019-02-06T07:00:30.012Z,24.10
2019-02-06T07:03:00.121Z,21.40
2019-02-06T07:05:30.277Z,23.47
2019-02-06T07:08:09.110Z,23.03
2019-02-06T07:10:32.289Z,22.23
2019-02-06T07:13:03.430Z,23.07
2019-02-06T07:15:34.918Z,20.07
2019-02-06T07:18:05.267Z,23.00
2019-02-06T07:20:36.828Z,24.80
2019-02-06T07:23:08.123Z,23.50
2019-02-06T07:25:38.497Z,24.50
2019-02-06T07:28:08.812Z,18.90
2019-02-06T07:30:39.087Z,22.97
2019-02-06T07:33:09.491Z,22.90
2019-02-06T07:35:40.062Z,20.93
2019-02-06T07:38:22.345Z,19.63
2019-02-06T07:40:55.206Z,19.77
2019-02-06T07:43:26.429Z,24.50
2019-02-06T07:45:56.682Z,20.87
2019-02-06T07:48:26.915Z,21.87
2019-02-06T07:50:57.113Z,22.60
2019-02-06T07:53:27.515Z,21.03
2019-02-06T07:55:57.700Z,22.97
2019-02-06T07:58:27.834Z,19.30
2019-02-06T08:00:57.846Z,21.20
2019-02-06T08:03:29.078Z,22.83
2019-02-06T08:05:59.561Z,21.43
2019-02-06T08:08:36.072Z,21.70
2019-02-06T08:11:03.203Z,22.23
2019-02-06T08:13:34.957Z,20.60
2019-02-06T08:16:07.268Z,20.97
2019-02-06T08:18:37.037Z,22.17
2019-02-06T08:21:07.148Z,21.57
2019-02-06T08:23:37.168Z,22.67
2019-02-06T08:26:07.209Z,20.93
2019-02-06T08:28:37.244Z,20.43
2019-02-06T08:31:07.385Z,21.93
2019-02-06T08:33:37.582Z,21.53
2019-02-06T08:36:07.646Z,20.70
2019-02-06T08:38:47.358Z,21.43
2019-02-06T08:41:09.596Z,20.37
2019-02-06T08:43:45.650Z,20.97
2019-02-06T08:46:15.938Z,21.33
2019-02-06T08:48:46.697Z,21.50
2019-02-06T08:51:16.957Z,22.50
2019-02-06T08:53:48.106Z,19.43
2019-02-06T08:56:18.511Z,21.47
2019-02-06T08:58:48.688Z,20.23
2019-02-06T09:01:18.989Z,19.67
2019-02-06T09:03:48.994Z,18.87
2019-02-06T09:06:20.167Z,21.30
2019-02-06T09:08:59.181Z,18.80
2019-02-06T09:11:21.957Z,19.93
2019-02-06T09:13:52.050Z,21.65
2019-02-06T09:16:22.148Z,20.92
2019-02-06T09:18:52.354Z,21.07
2019-02-06T09:21:22.450Z,19.57
2019-02-06T09:23:53.017Z,18.83
2019-02-06T09:26:23.169Z,19.23
2019-02-06T09:28:53.462Z,19.73
2019-02-06T09:31:24.103Z,19.35
2019-02-06T09:33:54.072Z,19.07
2019-02-06T09:36:24.089Z,19.90
2019-02-06T09:38:54.447Z,18.17
2019-02-06T09:41:24.418Z,18.67
2019-02-06T09:43:57.029Z,19.30
2019-02-06T09:46:27.268Z,18.85
2019-02-06T09:48:57.367Z,19.27
2019-02-06T09:51:27.391Z,18.00
2019-02-06T09:53:57.463Z,18.07
2019-02-06T09:56:27.580Z,18.42
2019-02-06T09:58:57.807Z,30.17
2019-02-06T10:01:27.945Z,21.05
2019-02-06T10:03:58.218Z,22.48
2019-02-06T10:06:30.080Z,20.08
2019-02-06T10:09:00.077Z,18.25
2019-02-06T10:11:30.199Z,18.10
2019-02-06T10:14:00.390Z,16.53
2019-02-06T10:16:30.509Z,16.07
2019-02-06T10:19:00.719Z,16.00
2019-02-06T10:21:31.525Z,16.15
2019-02-06T10:24:02.353Z,16.50
2019-02-06T10:26:32.513Z,17.93
2019-02-06T10:29:02.697Z,16.40
2019-02-06T10:31:33.052Z,17.17
2019-02-06T10:34:03.228Z,17.15
2019-02-06T10:36:33.382Z,17.32
2019-02-06T10:39:05.309Z,18.07
2019-02-06T10:41:35.697Z,17.42
2019-02-06T10:44:07.382Z,16.73
2019-02-06T10:46:37.571Z,16.20
2019-02-06T10:49:08.010Z,17.30
2019-02-06T10:51:38.357Z,16.62
2019-02-06T10:54:08.517Z,16.97
2019-02-06T10:56:38.691Z,17.60
2019-02-06T10:59:08.970Z,16.20
2019-02-06T11:01:38.951Z,18.33
2019-02-06T11:04:21.415Z,16.55
2019-02-06T11:06:51.615Z,16.37
2019-02-06T11:09:23.157Z,17.27
2019-02-06T11:11:53.266Z,16.07
2019-02-06T11:14:23.446Z,16.40
2019-02-06T11:16:53.697Z,16.62
2019-02-06T11:19:23.912Z,15.78
2019-02-06T11:21:53.970Z,16.23
2019-02-06T11:24:26.725Z,15.88
2019-02-06T11:26:55.919Z,16.10
2019-02-06T11:29:26.265Z,15.68
2019-02-06T11:31:56.417Z,17.57
2019-02-06T11:34:26.472Z,17.02
2019-02-06T11:36:56.556Z,15.50
2019-02-06T11:39:26.601Z,15.43
2019-02-06T11:41:56.713Z,15.95
2019-02-06T11:44:26.801Z,17.17
2019-02-06T11:46:56.856Z,15.50
2019-02-06T11:49:32.812Z,14.53
2019-02-06T11:52:02.924Z,15.53
2019-02-06T11:54:33.051Z,15.15
2019-02-06T11:57:03.314Z,15.05
2019-02-06T11:59:33.505Z,15.03
2019-02-06T12:02:03.619Z,15.10
2019-02-06T12:04:33.535Z,13.88
2019-02-06T12:07:05.105Z,14.10
2019-02-06T12:09:35.370Z,14.50
2019-02-06T12:12:05.844Z,15.15
2019-02-06T12:14:35.984Z,15.93
2019-02-06T12:17:06.038Z,15.47
2019-02-06T12:19:36.305Z,14.40
2019-02-06T12:22:06.366Z,15.48
2019-02-06T12:24:36.892Z,15.30
2019-02-06T12:27:07.135Z,13.43
2019-02-06T12:29:37.237Z,14.45
2019-02-06T12:32:07.292Z,13.58
2019-02-06T12:34:37.357Z,14.38
2019-02-06T12:37:07.564Z,14.15
2019-02-06T12:39:37.963Z,14.80
2019-02-06T12:42:08.220Z,13.70
2019-02-06T12:44:38.288Z,13.98
2019-02-06T12:47:09.190Z,15.15
2019-02-06T12:49:41.297Z,14.07
2019-02-06T12:52:11.585Z,16.05
2019-02-06T12:54:41.776Z,15.28
2019-02-06T12:57:12.115Z,14.58
2019-02-06T12:59:42.347Z,15.05
2019-02-06T13:02:12.616Z,14.53
2019-02-06T13:04:42.770Z,12.93
2019-02-06T13:07:13.197Z,13.75
2019-02-06T13:09:43.290Z,11.63
2019-02-06T13:12:13.489Z,12.55
2019-02-06T13:14:43.636Z,12.15
2019-02-06T13:17:13.955Z,14.15
2019-02-06T13:19:44.237Z,14.50
2019-02-06T13:22:14.448Z,12.88
2019-02-06T13:24:45.142Z,13.18
2019-02-06T13:27:15.544Z,11.97
2019-02-06T13:29:45.607Z,12.33
2019-02-06T13:32:15.980Z,14.30
2019-02-06T13:34:47.256Z,14.70
2019-02-06T13:37:17.511Z,14.85
2019-02-06T13:39:47.606Z,14.07
2019-02-06T13:42:18.083Z,21.62
2019-02-06T13:44:48.258Z,15.18
2019-02-06T13:47:18.449Z,15.10
2019-02-06T13:49:48.613Z,13.32
2019-02-06T13:52:18.937Z,12.82
2019-02-06T13:54:48.922Z,11.45
2019-02-06T13:57:19.110Z,10.93
2019-02-06T13:59:50.376Z,12.45
2019-02-06T14:02:20.579Z,11.05
2019-02-06T14:04:51.225Z,11.43
2019-02-06T14:07:22.510Z,12.18
2019-02-06T14:09:52.846Z,12.40
2019-02-06T14:12:24.599Z,11.48
2019-02-06T14:14:55.987Z,12.45
2019-02-06T14:17:28.145Z,12.87
2019-02-06T14:20:01.052Z,12.63
2019-02-06T14:22:31.346Z,13.90
2019-02-06T14:25:27.716Z,13.58
2019-02-06T14:28:44.922Z,14.15
2019-02-06T14:31:32.493Z,13.93
2019-02-06T14:34:22.415Z,13.55
2019-02-06T14:37:16.398Z,13.98
2019-02-06T14:40:28.061Z,14.75
2019-02-06T14:43:37.991Z,14.15
2019-02-06T14:46:48.225Z,13.95
2019-02-06T14:49:30.716Z,29.30
2019-02-06T14:52:27.946Z,45.88
2019-02-06T14:55:36.547Z,25.00
2019-02-06T14:58:46.229Z,19.07
2019-02-06T15:01:47.896Z,17.60
2019-02-06T15:04:56.598Z,16.93
2019-02-06T15:08:06.118Z,16.27
2019-02-06T15:10:44.896Z,14.77
2019-02-06T15:13:43.699Z,16.05
2019-02-06T15:16:52.197Z,16.27
2019-02-06T15:20:01.183Z,13.50
2019-02-06T15:22:57.849Z,13.45
2019-02-06T15:25:43.106Z,13.75
2019-02-06T15:28:38.226Z,12.53
2019-02-06T15:31:33.198Z,12.77
2019-02-06T15:34:34.078Z,13.10
2019-02-06T15:37:14.796Z,11.93
2019-02-06T15:40:23.233Z,12.68
2019-02-06T15:43:07.428Z,12.00
2019-02-06T15:46:07.945Z,14.25
2019-02-06T15:49:07.137Z,13.87
2019-02-06T15:52:01.118Z,15.23
2019-02-06T15:54:56.518Z,14.40
2019-02-06T15:57:55.686Z,15.47
2019-02-06T16:00:50.617Z,18.77
2019-02-06T16:04:12.377Z,21.90
2019-02-06T16:07:12.628Z,21.67
2019-02-06T16:10:02.029Z,20.50
2019-02-06T16:13:07.957Z,18.80
2019-02-06T16:16:16.346Z,18.27
2019-02-06T16:19:01.972Z,19.47
2019-02-06T16:21:53.017Z,16.17
2019-02-06T16:24:46.884Z,17.27
2019-02-06T16:27:44.179Z,15.00
2019-02-06T16:30:47.837Z,16.80
2019-02-06T16:33:57.214Z,17.55
2019-02-06T16:36:56.472Z,18.53
2019-02-06T16:39:53.984Z,16.93
2019-02-06T16:43:02.445Z,19.00
2019-02-06T16:46:00.096Z,19.13
2019-02-06T16:49:09.917Z,19.53
2019-02-06T16:51:58.678Z,23.50
2019-02-06T16:55:07.190Z,31.27
2019-02-06T16:58:05.869Z,29.47
2019-02-06T17:00:57.161Z,31.23
2019-02-06T17:03:52.653Z,34.03
2019-02-06T17:06:48.454Z,37.00
2019-02-06T17:09:44.204Z,41.13
2019-02-06T17:12:43.909Z,43.13
2019-02-06T17:15:45.436Z,40.37
2019-02-06T17:18:41.142Z,38.20
2019-02-06T17:21:35.353Z,36.77
2019-02-06T17:24:43.736Z,36.73
2019-02-06T17:27:45.866Z,40.77
2019-02-06T17:30:43.728Z,41.90
2019-02-06T17:33:45.275Z,40.77
2019-02-06T17:36:48.685Z,35.83
2019-02-06T17:39:55.148Z,35.93
2019-02-06T17:43:11.848Z,35.57
2019-02-06T17:46:16.157Z,38.23
2019-02-06T17:49:17.038Z,34.80
2019-02-06T17:52:29.190Z,37.37
2019-02-06T17:55:17.869Z,37.17
2019-02-06T17:57:50.036Z,46.53
2019-02-06T18:00:44.775Z,49.27
2019-02-06T18:03:17.934Z,50.53
2019-02-06T18:05:49.065Z,58.90
2019-02-06T18:08:19.663Z,66.70
2019-02-06T18:10:53.505Z,59.40
2019-02-06T18:13:23.705Z,56.37
2019-02-06T18:15:53.891Z,50.53
2019-02-06T18:18:51.043Z,54.03
2019-02-06T18:21:21.257Z,50.37
2019-02-06T18:23:55.645Z,50.47
2019-02-06T18:26:25.979Z,51.67
2019-02-06T18:28:56.096Z,49.97
2019-02-06T18:31:26.282Z,48.07
2019-02-06T18:33:56.502Z,45.10
2019-02-06T18:36:26.733Z,46.23
2019-02-06T18:38:57.257Z,48.93
2019-02-06T18:41:27.398Z,49.03
2019-02-06T18:43:57.976Z,51.93
2019-02-06T18:46:28.306Z,51.07
2019-02-06T18:48:58.556Z,53.33
2019-02-06T18:51:28.980Z,52.13
2019-02-06T18:53:59.129Z,46.20
2019-02-06T18:56:29.568Z,45.23
2019-02-06T18:58:59.851Z,45.63
2019-02-06T19:01:30.588Z,44.47
2019-02-06T19:04:02.097Z,48.63
2019-02-06T19:06:32.576Z,47.17
2019-02-06T19:09:02.883Z,48.77
2019-02-06T19:11:35.037Z,47.27
2019-02-06T19:14:05.798Z,47.93
2019-02-06T19:16:36.623Z,46.57
2019-02-06T19:19:07.803Z,45.50
2019-02-06T19:21:44.708Z,46.17
2019-02-06T19:24:27.724Z,44.53
2019-02-06T19:26:59.540Z,44.50
2019-02-06T19:29:29.925Z,45.27
2019-02-06T19:32:00.216Z,44.40
2019-02-06T19:34:30.541Z,42.37
2019-02-06T19:37:00.698Z,42.53
2019-02-06T19:39:36.256Z,66.20
2019-02-06T19:42:06.675Z,57.53
2019-02-06T19:44:37.199Z,60.03
2019-02-06T19:47:30.042Z,51.77
2019-02-06T19:49:58.301Z,65.90
2019-02-06T19:52:30.718Z,68.67
2019-02-06T19:55:04.414Z,65.10
2019-02-06T19:57:34.741Z,67.03
2019-02-06T20:00:14.162Z,70.17
2019-02-06T20:02:44.940Z,69.97
2019-02-06T20:05:17.306Z,67.23
2019-02-06T20:07:49.534Z,67.63
2019-02-06T20:10:22.694Z,63.33
2019-02-06T20:12:53.161Z,61.87
2019-02-06T20:15:33.597Z,59.50
2019-02-06T20:18:11.323Z,59.47
2019-02-06T20:20:44.719Z,59.60
2019-02-06T20:23:24.019Z,56.53
2019-02-06T20:26:01.076Z,56.20
2019-02-06T20:28:35.090Z,56.20
2019-02-06T20:31:11.814Z,57.90
2019-02-06T20:33:49.012Z,55.10
2019-02-06T20:36:29.265Z,53.40
2019-02-06T20:39:02.682Z,51.60
2019-02-06T20:41:39.604Z,51.47
2019-02-06T20:44:10.305Z,48.40
2019-02-06T20:46:42.206Z,49.10
2019-02-06T20:49:15.140Z,48.93
2019-02-06T20:52:24.352Z,45.43
2019-02-06T20:55:49.062Z,45.93
2019-02-06T20:59:35.470Z,45.13
2019-02-06T21:02:29.472Z,46.07
2019-02-06T21:05:05.169Z,46.27
2019-02-06T21:07:42.347Z,45.73
2019-02-06T21:10:24.503Z,45.57
2019-02-06T21:13:19.905Z,43.37
2019-02-06T21:17:02.083Z,43.27
2019-02-06T21:20:32.928Z,44.53
2019-02-06T21:23:08.735Z,42.73
2019-02-06T21:25:39.147Z,44.57
2019-02-06T21:28:14.194Z,45.37
2019-02-06T21:30:51.473Z,41.97
2019-02-06T21:33:33.203Z,48.37
2019-02-06T21:36:29.285Z,47.00
2019-02-06T21:39:26.752Z,43.33
2019-02-06T21:42:19.995Z,43.17
2019-02-06T21:45:11.183Z,43.00
2019-02-06T21:47:46.811Z,45.50
2019-02-06T21:50:36.669Z,44.53
2019-02-06T21:53:09.862Z,44.07
2019-02-06T21:56:10.574Z,42.60
2019-02-06T21:59:06.616Z,40.80
2019-02-06T22:01:49.884Z,42.90
2019-02-06T22:04:22.404Z,40.47
2019-02-06T22:06:58.052Z,43.07
2019-02-06T22:09:31.559Z,42.50
2019-02-06T22:12:01.688Z,41.30
2019-02-06T22:14:32.014Z,42.27
2019-02-06T22:17:02.795Z,40.20
2019-02-06T22:19:32.855Z,37.37
2019-02-06T22:22:03.018Z,38.10
2019-02-06T22:24:33.111Z,37.00
2019-02-06T22:27:03.170Z,38.83
2019-02-06T22:29:34.613Z,37.40
2019-02-06T22:32:04.997Z,42.33
2019-02-06T22:34:35.128Z,45.00
2019-02-06T22:37:05.491Z,44.40
2019-02-06T22:39:35.750Z,44.97
2019-02-06T22:42:05.926Z,43.00
2019-02-06T22:44:36.363Z,43.07
2019-02-06T22:47:06.451Z,43.70
2019-02-06T22:49:36.610Z,46.17
2019-02-06T22:52:06.658Z,46.47
2019-02-06T22:54:36.799Z,42.93
2019-02-06T22:57:06.957Z,42.17
2019-02-06T22:59:48.757Z,39.70
2019-02-06T23:02:19.179Z,38.33
2019-02-06T23:04:49.349Z,37.10
2019-02-06T23:07:19.565Z,36.60
2019-02-06T23:09:49.830Z,37.90
2019-02-06T23:12:19.966Z,37.70
2019-02-06T23:14:50.056Z,35.13
2019-02-06T23:17:20.329Z,33.90
2019-02-06T23:19:50.350Z,36.03
2019-02-06T23:22:20.412Z,37.97
2019-02-06T23:24:50.438Z,39.97
2019-02-06T23:27:20.571Z,42.00
2019-02-06T23:29:50.678Z,38.60
2019-02-06T23:32:20.891Z,33.60
2019-02-06T23:34:50.958Z,30.47
2019-02-06T23:37:21.357Z,31.07
2019-02-06T23:39:51.477Z,29.90
2019-02-06T23:42:41.805Z,32.20
2019-02-06T23:45:12.433Z,31.07
2019-02-06T23:47:42.897Z,31.30
2019-02-06T23:50:13.653Z,30.73
2019-02-06T23:52:44.125Z,32.30
2019-02-06T23:55:14.708Z,31.43
2019-02-06T23:57:44.756Z,31.43
